createdAt,value
2017-12-15T00:04:04.998Z,93.32
2017-12-15T00:09:05.799Z,93.90
2017-12-15T00:14:06.569Z,94.48
2017-12-15T00:19:07.337Z,93.85
2017-12-15T00:24:08.733Z,92.94
2017-12-15T00:29:27.030Z,92.07
2017-12-15T00:34:27.804Z,92.25
2017-12-15T00:39:28.660Z,92.05
2017-12-15T00:44:29.450Z,91.29
2017-12-15T00:49:32.349Z,91.26
2017-12-15T00:54:33.137Z,91.43
2017-12-15T00:59:34.078Z,91.50
2017-12-15T01:04:34.849Z,91.78
2017-12-15T01:09:36.033Z,92.19
2017-12-15T01:14:36.836Z,92.82
2017-12-15T01:19:37.734Z,92.18
2017-12-15T01:24:38.498Z,92.33
2017-12-15T01:29:39.319Z,92.29
2017-12-15T01:34:55.017Z,91.92
2017-12-15T01:39:55.803Z,92.26
2017-12-15T01:44:56.596Z,92.21
2017-12-15T01:49:59.419Z,92.04
2017-12-15T01:55:00.229Z,92.26
2017-12-15T02:00:01.043Z,92.41
2017-12-15T02:05:01.830Z,92.26
2017-12-15T02:10:02.655Z,92.69
2017-12-15T02:15:03.481Z,92.96
2017-12-15T02:20:04.269Z,93.00
2017-12-15T02:25:05.047Z,93.00
2017-12-15T02:30:14.371Z,92.51
2017-12-15T02:35:15.148Z,92.92
2017-12-15T02:40:15.971Z,92.88
2017-12-15T02:45:16.755Z,92.21
2017-12-15T02:50:27.810Z,92.29
2017-12-15T02:55:28.614Z,92.33
2017-12-15T03:00:29.460Z,92.38
2017-12-15T03:05:41.105Z,92.34
2017-12-15T03:10:41.902Z,92.64
2017-12-15T03:15:42.702Z,92.51
2017-12-15T03:20:43.521Z,92.50
2017-12-15T03:25:44.312Z,92.13
2017-12-15T03:30:46.103Z,91.10
2017-12-15T03:35:46.936Z,91.08
2017-12-15T03:40:47.734Z,90.45
2017-12-15T03:45:48.566Z,90.62
2017-12-15T03:50:49.337Z,90.95
2017-12-15T03:55:51.137Z,90.83
2017-12-15T04:00:51.931Z,90.98
2017-12-15T04:05:53.358Z,90.61
2017-12-15T04:10:54.191Z,90.15
2017-12-15T04:16:00.990Z,89.77
2017-12-15T04:21:01.808Z,90.23
2017-12-15T04:26:02.666Z,91.03
2017-12-15T04:31:03.473Z,90.96
2017-12-15T04:36:18.622Z,91.38
2017-12-15T04:41:19.494Z,91.03
2017-12-15T04:46:20.277Z,91.14
2017-12-15T04:51:43.451Z,89.70
2017-12-15T04:56:44.249Z,88.84
2017-12-15T05:01:45.071Z,89.11
2017-12-15T05:06:45.858Z,86.81
2017-12-15T05:11:46.638Z,86.83
2017-12-15T05:16:47.426Z,86.85
2017-12-15T05:21:48.206Z,85.97
2017-12-15T05:26:48.993Z,85.06
2017-12-15T05:32:10.810Z,84.98
2017-12-15T05:37:11.582Z,84.73
2017-12-15T05:42:12.386Z,86.17
2017-12-15T05:47:13.181Z,85.62
2017-12-15T05:52:13.958Z,84.95
2017-12-15T05:57:14.758Z,84.64
2017-12-15T06:02:15.551Z,84.32
2017-12-15T06:07:16.357Z,83.81
2017-12-15T06:12:24.014Z,84.43
2017-12-15T06:17:35.023Z,83.89
2017-12-15T06:22:35.814Z,84.18
2017-12-15T06:27:36.596Z,82.74
2017-12-15T06:32:37.431Z,83.01
2017-12-15T06:37:38.227Z,83.84
2017-12-15T06:42:53.602Z,82.01
2017-12-15T06:47:54.380Z,83.04
2017-12-15T06:52:55.183Z,81.97
2017-12-15T06:58:06.282Z,83.17
2017-12-15T07:03:07.056Z,82.57
2017-12-15T07:08:07.854Z,82.63
2017-12-15T07:13:08.656Z,81.04
2017-12-15T07:18:09.458Z,82.06
2017-12-15T07:23:10.280Z,81.10
2017-12-15T07:28:11.054Z,81.34
2017-12-15T07:33:11.878Z,81.76
2017-12-15T07:38:12.646Z,80.86
2017-12-15T07:43:13.446Z,81.27
2017-12-15T07:48:14.236Z,80.31
2017-12-15T07:53:15.066Z,81.42
2017-12-15T07:58:15.856Z,81.18
2017-12-15T08:03:16.661Z,82.44
2017-12-15T08:08:17.452Z,81.90
2017-12-15T08:13:18.229Z,82.56
2017-12-15T08:18:18.998Z,83.89
2017-12-15T08:23:19.800Z,83.32
2017-12-15T08:28:20.610Z,82.12
2017-12-15T08:33:24.699Z,82.76
2017-12-15T08:38:38.535Z,82.28
2017-12-15T08:43:40.387Z,81.58
2017-12-15T08:48:47.774Z,81.87
2017-12-15T08:53:48.562Z,80.79
2017-12-15T08:58:55.972Z,80.34
2017-12-15T09:04:18.643Z,79.64
2017-12-15T09:09:19.464Z,78.03
2017-12-15T09:14:20.259Z,78.60
2017-12-15T09:19:21.061Z,80.10
2017-12-15T09:46:36.697Z,75.37
2017-12-15T09:51:37.475Z,75.09
2017-12-15T09:56:38.254Z,74.46
2017-12-15T10:01:53.247Z,73.28
2017-12-15T10:06:54.862Z,72.22
2017-12-15T10:12:05.978Z,71.28
2017-12-15T10:17:06.755Z,70.73
2017-12-15T10:22:07.554Z,71.86
2017-12-15T10:27:12.400Z,72.46
2017-12-15T10:32:20.155Z,72.78
2017-12-15T10:37:20.931Z,71.58
2017-12-15T10:42:23.729Z,70.25
2017-12-15T10:47:24.529Z,70.12
2017-12-15T10:52:25.308Z,72.67
2017-12-15T10:57:32.694Z,68.29
2017-12-15T11:02:33.475Z,67.87
2017-12-15T11:07:47.831Z,71.28
2017-12-15T11:12:48.634Z,70.46
2017-12-15T11:17:49.393Z,66.56
2017-12-15T11:22:50.204Z,67.15
2017-12-15T11:27:50.954Z,68.01
2017-12-15T11:33:01.995Z,70.02
2017-12-15T11:38:02.852Z,68.95
2017-12-15T11:43:03.630Z,71.37
2017-12-15T11:48:04.454Z,67.62
2017-12-15T11:53:08.376Z,70.62
2017-12-15T11:58:09.166Z,69.53
2017-12-15T12:03:25.896Z,68.36
2017-12-15T12:08:34.838Z,67.80
2017-12-15T12:13:35.650Z,67.40
2017-12-15T12:18:36.457Z,69.32
2017-12-15T12:23:37.229Z,69.39
2017-12-15T12:29:02.500Z,72.11
2017-12-15T12:34:03.321Z,68.99
2017-12-15T12:39:21.462Z,70.35
2017-12-15T12:44:22.282Z,74.75
2017-12-15T12:49:23.083Z,77.27
2017-12-15T12:54:31.108Z,79.40
2017-12-15T12:59:37.770Z,79.09
2017-12-15T13:10:06.666Z,79.82
2017-12-15T13:15:07.572Z,78.07
2017-12-15T13:20:08.372Z,76.51
2017-12-15T13:25:17.946Z,74.88
2017-12-15T13:30:42.969Z,74.87
2017-12-15T13:35:57.654Z,75.56
2017-12-15T13:41:02.149Z,75.99
2017-12-15T13:46:04.476Z,75.70
2017-12-15T13:51:05.351Z,76.96
2017-12-15T13:56:06.156Z,77.67
2017-12-15T14:01:07.068Z,76.21
2017-12-15T14:06:07.855Z,76.89
2017-12-15T14:11:08.804Z,77.24
2017-12-15T14:16:16.275Z,77.21
2017-12-15T14:21:17.076Z,77.95
2017-12-15T14:26:17.935Z,76.66
2017-12-15T14:31:37.917Z,78.40
2017-12-15T14:42:11.173Z,75.58
2017-12-15T14:47:25.781Z,76.10
2017-12-15T14:57:54.269Z,75.71
2017-12-15T15:08:30.324Z,76.20
2017-12-15T15:19:16.773Z,80.34
2017-12-15T15:24:17.630Z,77.06
2017-12-15T15:29:24.964Z,80.67
2017-12-15T15:34:49.907Z,81.13
2017-12-15T15:45:21.985Z,83.77
2017-12-15T15:50:22.889Z,84.24
2017-12-15T15:55:23.734Z,83.65
2017-12-15T16:00:24.594Z,84.18
2017-12-15T16:05:25.410Z,84.64
2017-12-15T16:10:26.255Z,84.60
2017-12-15T16:15:27.107Z,84.49
2017-12-15T16:20:27.940Z,83.67
2017-12-15T16:25:28.806Z,84.75
2017-12-15T16:30:29.677Z,84.85
2017-12-15T16:35:30.559Z,84.90
2017-12-15T16:40:31.486Z,83.48
2017-12-15T16:45:40.173Z,84.69
2017-12-15T16:50:41.027Z,84.92
2017-12-15T16:55:41.866Z,83.36
2017-12-15T17:00:42.814Z,75.47
2017-12-15T17:05:43.661Z,75.30
2017-12-15T17:10:47.966Z,73.44
2017-12-15T17:15:48.822Z,73.94
2017-12-15T17:20:49.661Z,73.09
2017-12-15T17:25:50.666Z,73.98
2017-12-15T17:30:51.542Z,75.97
2017-12-15T17:35:52.342Z,81.38
2017-12-15T17:40:53.191Z,83.61
2017-12-15T17:45:53.998Z,83.89
2017-12-15T17:50:54.820Z,84.46
2017-12-15T17:55:55.643Z,82.98
2017-12-15T18:00:56.476Z,83.05
2017-12-15T18:05:57.301Z,82.58
2017-12-15T18:10:58.130Z,82.72
2017-12-15T18:15:58.970Z,85.12
2017-12-15T18:20:59.811Z,85.09
2017-12-15T18:26:07.596Z,85.35
2017-12-15T18:31:08.425Z,85.15
2017-12-15T18:36:09.226Z,85.24
2017-12-15T18:41:10.022Z,86.28
2017-12-15T18:46:10.841Z,86.74
2017-12-15T18:51:17.902Z,87.51
2017-12-15T18:56:18.725Z,88.14
2017-12-15T19:01:27.907Z,88.77
2017-12-15T19:06:28.738Z,88.04
2017-12-15T19:11:29.557Z,89.05
2017-12-15T19:16:30.383Z,89.46
2017-12-15T19:21:31.229Z,90.72
2017-12-15T19:26:35.668Z,91.03
2017-12-15T19:31:36.501Z,91.71
2017-12-15T19:36:37.370Z,92.16
2017-12-15T19:41:38.190Z,92.38
2017-12-15T19:46:39.021Z,91.89
2017-12-15T19:51:39.840Z,92.04
2017-12-15T19:56:40.683Z,92.68
2017-12-15T20:01:48.134Z,93.36
2017-12-15T20:06:52.038Z,93.55
2017-12-15T20:11:52.834Z,93.89
2017-12-15T20:16:53.669Z,94.38
2017-12-15T20:22:01.341Z,94.18
2017-12-15T20:27:02.173Z,93.90
2017-12-15T20:32:03.136Z,93.73
2017-12-15T20:37:12.607Z,93.33
2017-12-15T20:42:19.562Z,92.89
2017-12-15T20:47:20.401Z,92.94
2017-12-15T20:52:21.292Z,93.39
2017-12-15T20:57:22.219Z,93.49
2017-12-15T21:02:23.064Z,93.81
2017-12-15T21:07:23.919Z,94.16
2017-12-15T21:12:24.808Z,94.44
2017-12-15T21:23:13.470Z,95.37
2017-12-15T21:28:20.638Z,94.48
2017-12-15T21:33:21.530Z,94.34
2017-12-15T21:38:28.362Z,94.29
2017-12-15T21:43:29.245Z,93.79
2017-12-15T21:48:33.428Z,92.98
2017-12-15T21:53:35.330Z,93.10
2017-12-15T21:58:55.360Z,93.16
2017-12-15T22:04:12.009Z,93.05
2017-12-15T22:09:18.142Z,92.68
2017-12-15T22:14:31.984Z,92.57
2017-12-15T22:19:35.213Z,92.68
2017-12-15T22:24:36.022Z,93.00
2017-12-15T22:29:38.954Z,93.10
2017-12-15T22:34:53.527Z,92.68
2017-12-15T22:39:54.394Z,92.61
2017-12-15T22:45:01.874Z,92.90
2017-12-15T22:50:05.772Z,92.56
2017-12-15T23:00:49.516Z,92.53
2017-12-15T23:05:54.056Z,92.44
2017-12-15T23:11:03.806Z,92.94
2017-12-15T23:16:04.639Z,93.35
2017-12-15T23:21:05.522Z,93.35
2017-12-15T23:26:06.334Z,93.28
2017-12-15T23:31:07.132Z,93.02
2017-12-15T23:36:08.030Z,93.44
2017-12-15T23:41:08.858Z,93.73
2017-12-15T23:46:09.807Z,94.08
2017-12-15T23:51:10.667Z,93.94
